createdAt,value
2018-05-26T00:01:58.203Z,20.51
2018-05-26T00:04:25.640Z,20.50
2018-05-26T00:06:53.123Z,20.52
2018-05-26T00:09:20.607Z,20.49
2018-05-26T00:11:48.076Z,20.51
2018-05-26T00:14:17.237Z,20.50
2018-05-26T00:16:44.806Z,20.47
2018-05-26T00:19:12.199Z,20.40
2018-05-26T00:21:39.611Z,20.35
2018-05-26T00:24:07.076Z,20.30
2018-05-26T00:26:34.572Z,20.27
2018-05-26T00:29:02.065Z,20.25
2018-05-26T00:31:29.534Z,20.21
2018-05-26T00:33:57.036Z,20.26
2018-05-26T00:36:24.463Z,20.30
2018-05-26T00:38:51.857Z,20.28
2018-05-26T00:41:23.118Z,20.21
2018-05-26T00:43:50.519Z,20.13
2018-05-26T00:46:17.977Z,20.15
2018-05-26T00:48:45.411Z,20.20
2018-05-26T00:51:12.843Z,20.24
2018-05-26T00:53:40.275Z,20.24
2018-05-26T00:56:07.710Z,20.26
2018-05-26T00:58:35.488Z,20.31
2018-05-26T01:01:02.895Z,20.28
2018-05-26T01:03:30.735Z,20.27
2018-05-26T01:05:58.182Z,20.26
2018-05-26T01:08:25.640Z,20.12
2018-05-26T01:10:53.030Z,20.04
2018-05-26T01:13:20.675Z,20.02
2018-05-26T01:15:48.105Z,20.06
2018-05-26T01:18:16.392Z,20.05
2018-05-26T01:20:43.871Z,19.97
2018-05-26T01:23:11.328Z,20.01
2018-05-26T01:25:38.820Z,20.03
2018-05-26T01:28:06.273Z,20.02
2018-05-26T01:30:33.895Z,20.03
2018-05-26T01:33:01.366Z,20.06
2018-05-26T01:35:28.805Z,20.04
2018-05-26T01:37:56.224Z,20.01
2018-05-26T01:40:23.618Z,19.98
2018-05-26T01:42:51.060Z,19.96
2018-05-26T01:45:18.544Z,19.92
2018-05-26T01:47:46.010Z,19.91
2018-05-26T01:50:13.486Z,19.86
2018-05-26T01:52:40.928Z,19.80
2018-05-26T01:55:08.332Z,19.78
2018-05-26T01:57:37.502Z,19.70
2018-05-26T02:00:04.932Z,19.57
2018-05-26T02:02:32.389Z,19.52
2018-05-26T02:05:03.422Z,19.54
2018-05-26T02:07:30.862Z,19.57
2018-05-26T02:09:58.357Z,19.58
2018-05-26T02:12:25.864Z,19.53
2018-05-26T02:14:53.334Z,19.43
2018-05-26T02:17:20.867Z,19.39
2018-05-26T02:19:48.269Z,19.39
2018-05-26T02:22:15.746Z,19.43
2018-05-26T02:24:43.178Z,19.44
2018-05-26T02:27:10.628Z,19.42
2018-05-26T02:29:38.098Z,19.43
2018-05-26T02:32:05.500Z,19.39
2018-05-26T02:34:32.993Z,19.36
2018-05-26T02:37:00.458Z,19.27
2018-05-26T02:39:29.112Z,19.21
2018-05-26T02:41:56.541Z,19.17
2018-05-26T02:44:24.105Z,19.12
2018-05-26T02:46:51.519Z,19.06
2018-05-26T02:51:39.243Z,19.10
2018-05-26T02:54:06.647Z,19.11
2018-05-26T02:56:34.263Z,19.14
2018-05-26T02:59:01.694Z,19.20
2018-05-26T03:01:29.131Z,19.16
2018-05-26T03:03:56.021Z,19.16
2018-05-26T03:06:29.101Z,19.19
2018-05-26T03:09:02.217Z,19.22
2018-05-26T03:11:35.247Z,19.18
2018-05-26T03:14:08.325Z,19.12
2018-05-26T03:16:39.762Z,18.97
2018-05-26T03:19:07.377Z,18.98
2018-05-26T03:21:34.857Z,19.02
2018-05-26T03:24:02.267Z,18.99
2018-05-26T03:26:29.724Z,19.02
2018-05-26T03:28:58.126Z,19.00
2018-05-26T03:31:27.547Z,19.00
2018-05-26T03:33:54.988Z,18.92
2018-05-26T03:36:22.431Z,18.76
2018-05-26T03:38:49.912Z,18.68
2018-05-26T03:41:17.396Z,18.76
2018-05-26T03:43:46.608Z,18.85
2018-05-26T03:46:14.047Z,18.86
2018-05-26T03:48:42.111Z,18.83
2018-05-26T03:51:09.520Z,18.87
2018-05-26T03:53:36.946Z,18.86
2018-05-26T03:56:16.303Z,18.85
2018-05-26T03:58:59.779Z,18.72
2018-05-26T04:01:27.262Z,18.74
2018-05-26T04:03:54.691Z,18.79
2018-05-26T04:06:23.276Z,18.80
2018-05-26T04:08:50.753Z,18.84
2018-05-26T04:11:18.220Z,18.83
2018-05-26T04:13:45.615Z,18.82
2018-05-26T04:16:13.096Z,18.80
2018-05-26T04:18:40.842Z,18.86
2018-05-26T04:21:08.325Z,18.91
2018-05-26T04:23:35.756Z,18.93
2018-05-26T04:26:03.235Z,18.98
2018-05-26T04:28:31.040Z,18.97
2018-05-26T04:30:58.919Z,18.98
2018-05-26T04:33:26.404Z,18.99
2018-05-26T04:35:53.810Z,18.97
2018-05-26T04:38:21.219Z,18.94
2018-05-26T04:40:48.653Z,18.95
2018-05-26T04:43:16.764Z,18.97
2018-05-26T04:45:44.772Z,19.00
2018-05-26T04:48:12.292Z,19.06
2018-05-26T04:50:39.723Z,19.11
2018-05-26T04:53:07.151Z,19.19
2018-05-26T04:55:34.577Z,19.24
2018-05-26T04:58:02.049Z,19.28
2018-05-26T05:00:30.932Z,19.29
2018-05-26T05:02:58.476Z,19.40
2018-05-26T05:05:25.896Z,19.57
2018-05-26T05:07:53.360Z,19.71
2018-05-26T05:10:20.796Z,19.90
2018-05-26T05:12:48.237Z,19.95
2018-05-26T05:15:15.688Z,19.95
2018-05-26T05:17:43.306Z,19.88
2018-05-26T05:20:14.369Z,19.86
2018-05-26T05:22:41.837Z,20.04
2018-05-26T05:25:09.303Z,20.24
2018-05-26T05:27:36.945Z,20.46
2018-05-26T05:30:05.239Z,20.55
2018-05-26T05:32:32.762Z,20.65
2018-05-26T05:35:00.192Z,20.85
2018-05-26T05:37:27.679Z,21.03
2018-05-26T05:39:55.099Z,21.20
2018-05-26T05:42:23.776Z,21.44
2018-05-26T05:44:51.229Z,21.51
2018-05-26T05:47:19.616Z,21.29
2018-05-26T05:49:47.071Z,21.39
2018-05-26T05:52:17.861Z,21.52
2018-05-26T05:57:19.078Z,21.85
2018-05-26T05:59:46.605Z,21.67
2018-05-26T06:02:14.620Z,21.75
2018-05-26T06:04:43.030Z,21.95
2018-05-26T06:07:10.435Z,22.09
2018-05-26T06:09:37.871Z,22.29
2018-05-26T06:12:05.345Z,22.55
2018-05-26T06:14:32.815Z,22.58
2018-05-26T06:17:00.227Z,22.50
2018-05-26T06:19:27.650Z,21.99
2018-05-26T06:21:55.120Z,21.79
2018-05-26T06:24:22.632Z,21.60
2018-05-26T06:26:50.116Z,21.46
2018-05-26T06:29:17.554Z,21.64
2018-05-26T06:31:45.044Z,21.75
2018-05-26T06:34:12.544Z,21.76
2018-05-26T06:36:39.981Z,21.69
2018-05-26T06:39:07.391Z,21.63
2018-05-26T06:41:34.836Z,21.60
2018-05-26T06:44:03.304Z,21.65
2018-05-26T06:46:31.545Z,21.46
2018-05-26T06:48:58.947Z,21.40
2018-05-26T06:51:26.478Z,21.40
2018-05-26T06:53:53.944Z,21.44
2018-05-26T06:56:21.575Z,21.29
2018-05-26T06:58:49.013Z,21.25
2018-05-26T07:01:17.714Z,21.16
2018-05-26T07:03:46.337Z,21.10
2018-05-26T07:06:13.805Z,21.28
2018-05-26T07:08:41.424Z,21.32
2018-05-26T07:11:08.905Z,21.33
2018-05-26T07:13:37.304Z,21.30
2018-05-26T07:16:04.792Z,21.29
2018-05-26T07:18:32.265Z,21.35
2018-05-26T07:20:59.652Z,21.40
2018-05-26T07:23:27.263Z,21.43
2018-05-26T07:25:54.865Z,21.69
2018-05-26T07:28:22.375Z,21.89
2018-05-26T07:30:49.800Z,22.13
2018-05-26T07:33:17.236Z,22.41
2018-05-26T07:35:45.021Z,22.63
2018-05-26T07:38:12.469Z,22.80
2018-05-26T07:40:39.914Z,22.80
2018-05-26T07:43:08.409Z,22.94
2018-05-26T07:45:37.187Z,23.01
2018-05-26T07:48:05.404Z,23.24
2018-05-26T07:50:32.813Z,23.41
2018-05-26T07:53:00.896Z,23.46
2018-05-26T07:55:28.397Z,23.40
2018-05-26T07:57:56.674Z,23.63
2018-05-26T08:00:25.112Z,23.99
2018-05-26T08:02:52.499Z,24.23
2018-05-26T08:05:20.015Z,24.18
2018-05-26T08:07:47.812Z,24.09
2018-05-26T08:10:15.346Z,24.31
2018-05-26T08:12:42.738Z,24.66
2018-05-26T08:15:10.184Z,25.35
2018-05-26T08:17:37.739Z,25.21
2018-05-26T08:20:05.258Z,25.20
2018-05-26T08:22:32.713Z,24.84
2018-05-26T08:25:00.130Z,24.34
2018-05-26T08:27:27.716Z,23.95
2018-05-26T08:29:55.287Z,24.15
2018-05-26T08:32:24.664Z,24.57
2018-05-26T08:34:52.203Z,24.70
2018-05-26T08:37:19.659Z,24.69
2018-05-26T08:39:47.109Z,24.75
2018-05-26T08:42:15.677Z,24.80
2018-05-26T08:44:43.464Z,24.75
2018-05-26T08:47:10.961Z,24.57
2018-05-26T08:49:38.455Z,24.59
2018-05-26T08:52:06.208Z,24.69
2018-05-26T08:54:34.561Z,24.70
2018-05-26T08:57:02.024Z,24.79
2018-05-26T08:59:30.605Z,24.86
2018-05-26T09:01:58.083Z,24.76
2018-05-26T09:04:25.564Z,24.56
2018-05-26T09:06:52.967Z,24.49
2018-05-26T09:09:20.428Z,24.55
2018-05-26T09:11:47.893Z,24.68
2018-05-26T09:14:15.347Z,24.86
2018-05-26T09:16:42.811Z,25.12
2018-05-26T09:19:12.349Z,25.33
2018-05-26T09:21:39.802Z,25.35
2018-05-26T09:24:07.265Z,25.20
2018-05-26T09:26:34.731Z,25.35
2018-05-26T09:29:02.166Z,25.35
2018-05-26T09:31:29.685Z,25.34
2018-05-26T09:34:00.029Z,25.25
2018-05-26T09:36:27.488Z,25.17
2018-05-26T09:38:55.598Z,25.17
2018-05-26T09:41:23.003Z,25.23
2018-05-26T09:43:50.407Z,25.26
2018-05-26T09:46:18.687Z,25.21
2018-05-26T09:48:46.119Z,25.01
2018-05-26T09:51:13.556Z,24.95
2018-05-26T09:53:41.303Z,25.05
2018-05-26T09:56:08.839Z,25.04
2018-05-26T09:58:36.240Z,24.93
2018-05-26T10:01:03.680Z,25.06
2018-05-26T10:03:31.108Z,25.18
2018-05-26T10:05:58.549Z,25.25
2018-05-26T10:08:26.016Z,25.25
2018-05-26T10:10:53.423Z,25.27
2018-05-26T10:13:23.922Z,25.26
2018-05-26T10:18:23.343Z,25.54
2018-05-26T10:20:50.884Z,25.74
2018-05-26T10:23:18.317Z,25.87
2018-05-26T10:25:45.789Z,25.94
2018-05-26T10:28:15.035Z,26.08
2018-05-26T10:30:42.487Z,26.17
2018-05-26T10:33:09.918Z,26.35
2018-05-26T10:35:37.370Z,26.53
2018-05-26T10:38:04.886Z,26.66
2018-05-26T10:40:33.370Z,26.67
2018-05-26T10:43:00.856Z,26.93
2018-05-26T10:45:39.149Z,27.24
2018-05-26T10:48:06.616Z,27.60
2018-05-26T10:50:34.018Z,27.66
2018-05-26T10:53:01.559Z,27.60
2018-05-26T10:55:29.059Z,28.01
2018-05-26T10:57:56.550Z,28.32
2018-05-26T11:00:23.955Z,28.37
2018-05-26T11:02:52.612Z,28.52
2018-05-26T11:05:21.270Z,28.60
2018-05-26T11:07:48.825Z,28.52
2018-05-26T11:10:16.286Z,28.50
2018-05-26T11:12:43.964Z,28.70
2018-05-26T11:15:11.519Z,28.81
2018-05-26T11:17:38.933Z,28.95
2018-05-26T11:20:06.365Z,28.82
2018-05-26T11:22:33.871Z,28.53
2018-05-26T11:25:01.357Z,28.56
2018-05-26T11:27:29.186Z,29.17
2018-05-26T11:29:56.710Z,29.27
2018-05-26T11:32:24.127Z,29.55
2018-05-26T11:34:52.175Z,29.68
2018-05-26T11:37:19.231Z,29.95
2018-05-26T11:39:46.684Z,30.02
2018-05-26T11:42:14.130Z,30.06
2018-05-26T11:44:41.581Z,30.05
2018-05-26T11:47:09.019Z,30.08
2018-05-26T11:49:36.545Z,30.21
2018-05-26T11:52:04.045Z,30.39
2018-05-26T11:54:31.651Z,30.15
2018-05-26T11:56:59.084Z,30.28
2018-05-26T11:59:27.065Z,30.41
2018-05-26T12:01:54.564Z,30.37
2018-05-26T12:04:22.096Z,30.26
2018-05-26T12:06:50.257Z,30.33
2018-05-26T12:09:18.651Z,30.20
2018-05-26T12:11:46.176Z,30.07
2018-05-26T12:14:13.862Z,30.31
2018-05-26T12:16:41.356Z,30.30
2018-05-26T12:19:08.819Z,30.30
2018-05-26T12:21:36.418Z,30.44
2018-05-26T12:24:03.839Z,30.37
2018-05-26T12:26:31.360Z,30.04
2018-05-26T12:28:58.862Z,29.49
2018-05-26T12:31:26.326Z,28.97
2018-05-26T12:33:53.970Z,28.74
2018-05-26T12:36:21.476Z,28.67
2018-05-26T12:38:48.917Z,28.70
2018-05-26T12:41:19.370Z,29.10
2018-05-26T12:43:46.817Z,28.95
2018-05-26T12:46:14.879Z,28.68
2018-05-26T12:48:42.407Z,28.53
2018-05-26T12:51:10.707Z,28.57
2018-05-26T12:53:38.959Z,28.57
2018-05-26T12:56:07.252Z,28.53
2018-05-26T12:58:34.679Z,28.51
2018-05-26T13:01:02.323Z,28.44
2018-05-26T13:03:29.816Z,28.41
2018-05-26T13:05:57.292Z,28.55
2018-05-26T13:08:24.874Z,28.65
2018-05-26T13:10:52.352Z,28.85
2018-05-26T13:13:20.835Z,29.10
2018-05-26T13:15:48.299Z,29.48
2018-05-26T13:18:16.249Z,29.77
2018-05-26T13:20:43.740Z,29.90
2018-05-26T13:23:11.185Z,29.52
2018-05-26T13:25:38.677Z,29.40
2018-05-26T13:28:06.114Z,29.34
2018-05-26T13:30:33.544Z,29.66
2018-05-26T13:33:02.797Z,29.57
2018-05-26T13:35:30.480Z,29.90
2018-05-26T13:37:57.998Z,29.86
2018-05-26T13:40:26.392Z,29.43
2018-05-26T13:42:53.859Z,28.92
2018-05-26T13:45:21.346Z,28.93
2018-05-26T13:47:49.344Z,28.83
2018-05-26T13:50:16.789Z,28.63
2018-05-26T13:52:44.243Z,28.50
2018-05-26T13:55:11.777Z,28.53
2018-05-26T13:57:39.959Z,28.53
2018-05-26T14:00:07.502Z,28.68
2018-05-26T14:02:34.994Z,28.81
2018-05-26T14:05:02.512Z,28.57
2018-05-26T14:07:30.000Z,28.32
2018-05-26T14:09:57.450Z,28.17
2018-05-26T14:12:24.882Z,28.25
2018-05-26T14:14:52.310Z,28.37
2018-05-26T14:17:19.842Z,28.28
2018-05-26T14:19:47.307Z,27.92
2018-05-26T14:22:15.712Z,27.57
2018-05-26T14:24:43.176Z,27.54
2018-05-26T14:27:10.615Z,27.52
2018-05-26T14:29:38.047Z,27.42
2018-05-26T14:32:05.500Z,27.43
2018-05-26T14:34:32.958Z,27.54
2018-05-26T14:37:00.440Z,27.45
2018-05-26T14:39:27.887Z,27.58
2018-05-26T14:41:55.310Z,27.42
2018-05-26T14:44:22.760Z,27.39
2018-05-26T14:46:51.048Z,27.46
2018-05-26T14:49:18.524Z,27.46
2018-05-26T14:51:45.994Z,27.29
2018-05-26T14:54:13.482Z,27.31
2018-05-26T14:56:44.592Z,27.36
2018-05-26T14:59:12.071Z,27.28
2018-05-26T15:01:39.574Z,27.32
2018-05-26T15:04:06.992Z,27.43
2018-05-26T15:06:34.490Z,27.46
2018-05-26T15:09:02.005Z,27.38
2018-05-26T15:11:29.492Z,27.26
2018-05-26T15:14:01.617Z,27.30
2018-05-26T15:16:29.191Z,27.46
2018-05-26T15:18:57.624Z,27.54
2018-05-26T15:21:25.241Z,27.45
2018-05-26T15:23:53.639Z,27.53
2018-05-26T15:26:21.076Z,27.58
2018-05-26T15:28:48.537Z,27.51
2018-05-26T15:31:15.993Z,27.51
2018-05-26T15:33:43.462Z,27.32
2018-05-26T15:36:10.910Z,27.20
2018-05-26T15:38:38.335Z,27.39
2018-05-26T15:41:05.829Z,27.38
2018-05-26T15:43:33.313Z,27.24
2018-05-26T15:46:00.767Z,26.98
2018-05-26T15:48:28.261Z,26.78
2018-05-26T15:50:55.723Z,26.56
2018-05-26T15:53:23.161Z,26.52
2018-05-26T15:55:50.681Z,26.86
2018-05-26T15:58:18.697Z,27.04
2018-05-26T16:00:46.141Z,27.16
2018-05-26T16:03:13.572Z,27.16
2018-05-26T16:05:41.071Z,27.18
2018-05-26T16:08:08.492Z,27.38
2018-05-26T16:10:37.069Z,27.44
2018-05-26T16:13:04.596Z,27.28
2018-05-26T16:15:32.168Z,27.20
2018-05-26T16:17:59.613Z,27.26
2018-05-26T16:20:27.105Z,27.29
2018-05-26T16:22:54.534Z,27.35
2018-05-26T16:25:22.069Z,27.29
2018-05-26T16:27:49.479Z,27.29
2018-05-26T16:30:18.307Z,27.34
2018-05-26T16:32:45.704Z,27.30
2018-05-26T16:35:13.110Z,27.33
2018-05-26T16:37:40.515Z,27.32
2018-05-26T16:40:08.220Z,27.31
2018-05-26T16:42:35.673Z,27.46
2018-05-26T16:45:03.145Z,27.62
2018-05-26T16:47:30.629Z,27.73
2018-05-26T16:49:58.594Z,27.81
2018-05-26T16:52:26.066Z,27.75
2018-05-26T16:54:55.828Z,27.65
2018-05-26T16:57:23.271Z,27.85
2018-05-26T16:59:50.707Z,27.94
2018-05-26T17:02:18.277Z,28.04
2018-05-26T17:04:45.736Z,28.06
2018-05-26T17:07:13.238Z,28.15
2018-05-26T17:09:40.667Z,28.13
2018-05-26T17:12:08.616Z,27.85
2018-05-26T17:14:36.141Z,27.64
2018-05-26T17:17:03.584Z,27.48
2018-05-26T17:19:31.214Z,27.45
2018-05-26T17:21:58.707Z,27.46
2018-05-26T17:24:26.352Z,27.44
2018-05-26T17:26:53.820Z,27.27
2018-05-26T17:29:21.252Z,27.21
2018-05-26T17:31:49.703Z,27.09
2018-05-26T17:34:18.636Z,26.86
2018-05-26T17:36:46.163Z,26.47
2018-05-26T17:39:13.645Z,25.95
2018-05-26T17:41:41.099Z,25.52
2018-05-26T17:44:08.607Z,25.20
2018-05-26T17:46:36.161Z,24.99
2018-05-26T17:49:03.633Z,24.83
2018-05-26T17:51:31.150Z,24.68
2018-05-26T17:53:58.633Z,24.65
2018-05-26T17:56:26.159Z,24.60
2018-05-26T17:58:53.572Z,24.55
2018-05-26T18:01:21.153Z,24.56
2018-05-26T18:03:48.584Z,24.52
2018-05-26T18:06:17.291Z,24.39
2018-05-26T18:08:44.698Z,24.28
2018-05-26T18:11:12.145Z,24.21
2018-05-26T18:13:39.734Z,24.22
2018-05-26T18:16:07.374Z,24.27
2018-05-26T18:18:34.868Z,24.18
2018-05-26T18:21:02.396Z,24.14
2018-05-26T18:23:29.845Z,24.09
2018-05-26T18:25:57.275Z,24.06
2018-05-26T18:28:24.749Z,24.06
2018-05-26T18:30:52.244Z,24.07
2018-05-26T18:33:19.695Z,24.05
2018-05-26T18:35:47.961Z,23.98
2018-05-26T18:38:15.442Z,24.02
2018-05-26T18:40:43.798Z,24.02
2018-05-26T18:43:12.436Z,24.10
2018-05-26T18:45:40.002Z,24.15
2018-05-26T18:48:07.704Z,24.12
2018-05-26T18:50:35.191Z,24.15
2018-05-26T18:53:02.707Z,24.15
2018-05-26T18:55:30.159Z,24.18
2018-05-26T18:57:57.620Z,24.18
2018-05-26T19:00:25.991Z,24.16
2018-05-26T19:02:53.477Z,24.07
2018-05-26T19:05:20.918Z,23.95
2018-05-26T19:07:48.365Z,23.84
2018-05-26T19:10:15.823Z,23.74
2018-05-26T19:12:43.564Z,23.76
2018-05-26T19:15:11.015Z,23.80
2018-05-26T19:17:38.460Z,23.73
2018-05-26T19:20:05.924Z,23.64
2018-05-26T19:22:33.636Z,23.64
2018-05-26T19:25:01.153Z,23.57
2018-05-26T19:27:28.639Z,23.45
2018-05-26T19:29:56.076Z,23.35
2018-05-26T19:32:23.544Z,23.24
2018-05-26T19:34:51.011Z,23.16
2018-05-26T19:37:18.511Z,23.13
2018-05-26T19:39:45.991Z,23.07
2018-05-26T19:42:13.516Z,23.01
2018-05-26T19:44:41.050Z,22.97
2018-05-26T19:47:09.282Z,23.03
2018-05-26T19:49:37.242Z,23.05
2018-05-26T19:52:04.643Z,23.06
2018-05-26T19:54:32.139Z,23.08
2018-05-26T19:56:59.797Z,23.07
2018-05-26T19:59:27.313Z,23.03
2018-05-26T20:01:54.819Z,23.01
2018-05-26T20:04:22.244Z,22.89
2018-05-26T20:06:49.649Z,22.92
2018-05-26T20:09:17.148Z,22.94
2018-05-26T20:11:44.632Z,22.94
2018-05-26T20:14:12.070Z,22.90
2018-05-26T20:16:40.736Z,22.71
2018-05-26T20:19:08.240Z,22.62
2018-05-26T20:21:35.705Z,22.62
2018-05-26T20:24:03.461Z,22.64
2018-05-26T20:26:30.914Z,22.63
2018-05-26T20:29:00.092Z,22.48
2018-05-26T20:31:27.835Z,22.35
2018-05-26T20:33:55.301Z,22.24
2018-05-26T20:36:22.774Z,22.21
2018-05-26T20:38:50.266Z,22.26
2018-05-26T20:41:17.732Z,22.30
2018-05-26T20:43:45.811Z,22.35
2018-05-26T20:46:13.343Z,22.37
2018-05-26T20:48:40.829Z,22.45
2018-05-26T20:51:08.407Z,22.53
2018-05-26T20:53:36.003Z,22.56
2018-05-26T20:56:04.397Z,22.50
2018-05-26T20:58:31.801Z,22.44
2018-05-26T21:00:59.285Z,22.46
2018-05-26T21:03:26.747Z,22.54
2018-05-26T21:05:54.180Z,22.55
2018-05-26T21:08:21.607Z,22.60
2018-05-26T21:10:49.036Z,22.58
2018-05-26T21:13:16.482Z,22.55
2018-05-26T21:15:44.919Z,22.48
2018-05-26T21:18:15.320Z,22.45
2018-05-26T21:20:42.799Z,22.46
2018-05-26T21:23:10.282Z,22.38
2018-05-26T21:25:37.775Z,22.22
2018-05-26T21:28:05.193Z,22.12
2018-05-26T21:30:33.425Z,22.11
2018-05-26T21:33:00.920Z,22.15
2018-05-26T21:35:28.317Z,22.15
2018-05-26T21:37:56.940Z,22.09
2018-05-26T21:40:24.363Z,22.08
2018-05-26T21:42:52.054Z,22.11
2018-05-26T21:45:19.558Z,22.06
2018-05-26T21:47:47.809Z,22.02
2018-05-26T21:50:15.256Z,22.07
2018-05-26T21:52:42.724Z,22.11
2018-05-26T21:55:10.242Z,22.01
2018-05-26T21:57:37.738Z,22.03
2018-05-26T22:00:05.191Z,22.05
2018-05-26T22:02:32.679Z,22.06
2018-05-26T22:05:00.447Z,22.05
2018-05-26T22:07:27.877Z,22.05
2018-05-26T22:09:55.289Z,22.02
2018-05-26T22:12:23.637Z,21.90
2018-05-26T22:14:51.109Z,21.87
2018-05-26T22:17:18.583Z,21.81
2018-05-26T22:19:46.087Z,21.76
2018-05-26T22:22:14.400Z,21.82
2018-05-26T22:24:41.887Z,21.91
2018-05-26T22:27:10.639Z,21.97
2018-05-26T22:29:38.924Z,22.05
2018-05-26T22:32:08.311Z,22.09
2018-05-26T22:34:35.790Z,22.10
2018-05-26T22:37:03.346Z,22.04
2018-05-26T22:39:31.661Z,22.04
2018-05-26T22:41:59.099Z,22.09
2018-05-26T22:44:26.567Z,22.09
2018-05-26T22:46:54.196Z,22.00
2018-05-26T22:49:22.667Z,21.89
2018-05-26T22:51:50.148Z,21.81
2018-05-26T22:54:17.895Z,21.79
2018-05-26T22:56:45.328Z,21.76
2018-05-26T22:59:12.811Z,21.74
2018-05-26T23:01:40.354Z,21.72
2018-05-26T23:04:07.837Z,21.60
2018-05-26T23:06:35.360Z,21.59
2018-05-26T23:09:02.854Z,21.59
2018-05-26T23:11:30.306Z,21.56
2018-05-26T23:13:57.840Z,21.54
2018-05-26T23:16:25.265Z,21.45
2018-05-26T23:18:52.811Z,21.45
2018-05-26T23:21:20.265Z,21.44
2018-05-26T23:23:48.884Z,21.41
2018-05-26T23:26:16.288Z,21.38
2018-05-26T23:28:43.769Z,21.31
2018-05-26T23:31:11.179Z,21.23
2018-05-26T23:33:38.751Z,21.15
2018-05-26T23:36:10.904Z,21.09
2018-05-26T23:38:38.426Z,21.06
2018-05-26T23:41:06.220Z,20.99
2018-05-26T23:43:33.695Z,20.95
2018-05-26T23:46:01.108Z,20.93
2018-05-26T23:48:28.546Z,20.87
2018-05-26T23:50:55.980Z,20.83
2018-05-26T23:53:23.694Z,20.83
2018-05-26T23:55:51.170Z,20.80
2018-05-26T23:58:19.647Z,20.79
